createdAt,value
2019-02-22T00:00:32.428Z,22.77
2019-02-22T00:03:03.139Z,24.53
2019-02-22T00:05:33.984Z,20.70
2019-02-22T00:08:05.138Z,21.67
2019-02-22T00:10:35.588Z,21.20
2019-02-22T00:13:06.389Z,19.13
2019-02-22T00:15:37.124Z,19.73
2019-02-22T00:18:08.055Z,21.10
2019-02-22T00:20:41.167Z,19.67
2019-02-22T00:23:11.365Z,18.30
2019-02-22T00:25:42.104Z,15.80
2019-02-22T00:28:12.502Z,15.00
2019-02-22T00:30:43.483Z,18.90
2019-02-22T00:33:14.590Z,15.93
2019-02-22T00:35:45.994Z,17.47
2019-02-22T00:38:16.793Z,14.90
2019-02-22T00:40:47.422Z,18.10
2019-02-22T00:43:18.315Z,16.00
2019-02-22T00:45:49.108Z,15.60
2019-02-22T00:48:19.870Z,15.20
2019-02-22T00:50:50.723Z,16.07
2019-02-22T00:53:21.663Z,14.23
2019-02-22T00:55:52.546Z,14.37
2019-02-22T00:58:23.522Z,14.73
2019-02-22T01:00:56.000Z,12.93
2019-02-22T01:03:26.530Z,11.10
2019-02-22T01:05:58.795Z,10.60
2019-02-22T01:08:29.684Z,12.67
2019-02-22T01:11:00.533Z,11.87
2019-02-22T01:13:31.403Z,10.70
2019-02-22T01:16:02.263Z,10.83
2019-02-22T01:18:33.181Z,11.63
2019-02-22T01:21:07.205Z,10.17
2019-02-22T01:23:38.214Z,10.30
2019-02-22T01:26:09.070Z,12.07
2019-02-22T01:28:40.578Z,16.80
2019-02-22T01:31:12.446Z,12.63
2019-02-22T01:33:43.294Z,10.77
2019-02-22T01:36:16.297Z,13.57
2019-02-22T01:38:47.040Z,13.73
2019-02-22T01:41:17.853Z,9.73
2019-02-22T01:43:48.598Z,9.63
2019-02-22T01:46:19.347Z,15.80
2019-02-22T01:48:52.540Z,12.40
2019-02-22T01:51:24.688Z,10.70
2019-02-22T01:53:55.129Z,9.80
2019-02-22T01:56:26.077Z,10.80
2019-02-22T01:58:56.807Z,9.80
2019-02-22T02:01:30.311Z,13.63
2019-02-22T02:04:01.142Z,15.60
2019-02-22T02:06:33.948Z,9.37
2019-02-22T02:09:05.971Z,9.40
2019-02-22T02:11:36.836Z,11.60
2019-02-22T02:14:07.632Z,8.43
2019-02-22T02:16:38.685Z,11.17
2019-02-22T02:19:09.422Z,8.90
2019-02-22T02:21:39.933Z,10.23
2019-02-22T02:24:11.922Z,8.57
2019-02-22T02:26:42.796Z,10.13
2019-02-22T02:29:13.636Z,7.40
2019-02-22T02:31:44.475Z,9.50
2019-02-22T02:34:15.342Z,8.93
2019-02-22T02:36:46.394Z,8.83
2019-02-22T02:39:17.163Z,10.10
2019-02-22T02:41:49.612Z,7.50
2019-02-22T02:44:20.453Z,6.67
2019-02-22T02:46:51.164Z,7.73
2019-02-22T02:49:25.773Z,7.70
2019-02-22T02:51:56.974Z,9.03
2019-02-22T02:54:27.686Z,7.17
2019-02-22T02:56:58.826Z,7.20
2019-02-22T02:59:29.562Z,5.90
2019-02-22T03:02:01.264Z,6.50
2019-02-22T03:04:32.036Z,7.67
2019-02-22T03:07:10.403Z,6.70
2019-02-22T03:09:41.186Z,7.87
2019-02-22T03:12:11.870Z,6.80
2019-02-22T03:14:42.674Z,5.67
2019-02-22T03:17:13.491Z,5.73
2019-02-22T03:19:47.134Z,5.27
2019-02-22T03:22:17.716Z,5.37
2019-02-22T03:24:48.592Z,4.93
2019-02-22T03:27:19.407Z,4.03
2019-02-22T03:29:51.361Z,3.87
2019-02-22T03:32:24.782Z,4.30
2019-02-22T03:34:55.628Z,4.40
2019-02-22T03:37:26.572Z,4.10
2019-02-22T03:39:57.396Z,4.10
2019-02-22T03:42:28.244Z,3.87
2019-02-22T03:44:58.700Z,4.10
2019-02-22T03:47:29.601Z,5.17
2019-02-22T03:50:00.556Z,4.40
2019-02-22T03:52:33.092Z,3.90
2019-02-22T03:55:04.568Z,4.00
2019-02-22T03:57:35.407Z,3.40
2019-02-22T04:00:09.519Z,3.40
2019-02-22T04:02:40.637Z,3.37
2019-02-22T04:05:11.232Z,3.63
2019-02-22T04:07:42.306Z,4.00
2019-02-22T04:10:13.188Z,4.37
2019-02-22T04:12:44.114Z,3.63
2019-02-22T04:15:14.927Z,4.10
2019-02-22T04:17:45.737Z,4.43
2019-02-22T04:20:16.625Z,4.20
2019-02-22T04:22:48.180Z,4.60
2019-02-22T04:25:19.217Z,4.87
2019-02-22T04:27:50.333Z,4.57
2019-02-22T04:30:21.199Z,5.17
2019-02-22T04:32:52.405Z,5.50
2019-02-22T04:35:23.226Z,5.50
2019-02-22T04:37:53.890Z,5.80
2019-02-22T04:40:24.949Z,5.60
2019-02-22T04:42:55.891Z,5.47
2019-02-22T04:45:26.650Z,6.67
2019-02-22T04:47:57.702Z,6.80
2019-02-22T04:50:28.446Z,6.63
2019-02-22T04:53:00.331Z,6.67
2019-02-22T04:55:31.103Z,7.13
2019-02-22T04:58:03.423Z,6.63
2019-02-22T05:00:34.290Z,6.80
2019-02-22T05:03:05.163Z,7.23
2019-02-22T05:05:36.932Z,7.10
2019-02-22T05:08:07.832Z,7.20
2019-02-22T05:10:38.901Z,7.30
2019-02-22T05:13:12.361Z,7.43
2019-02-22T05:15:43.809Z,7.60
2019-02-22T05:18:14.693Z,7.80
2019-02-22T05:20:45.495Z,8.37
2019-02-22T05:23:16.360Z,9.80
2019-02-22T05:25:50.553Z,12.07
2019-02-22T05:28:21.411Z,10.80
2019-02-22T05:30:52.358Z,11.63
2019-02-22T05:33:23.078Z,13.20
2019-02-22T05:35:53.882Z,12.77
2019-02-22T05:38:24.671Z,13.20
2019-02-22T05:40:55.380Z,12.77
2019-02-22T05:43:26.185Z,12.90
2019-02-22T05:45:57.119Z,12.53
2019-02-22T05:48:27.877Z,13.43
2019-02-22T05:50:59.189Z,14.17
2019-02-22T05:53:29.972Z,14.03
2019-02-22T05:56:00.829Z,12.87
2019-02-22T05:58:33.090Z,13.73
2019-02-22T06:01:06.634Z,12.17
2019-02-22T06:03:36.387Z,13.93
2019-02-22T06:06:06.873Z,13.30
2019-02-22T06:08:37.626Z,14.33
2019-02-22T06:11:08.609Z,13.93
2019-02-22T06:13:39.465Z,14.83
2019-02-22T06:16:11.702Z,14.40
2019-02-22T06:18:42.533Z,14.20
2019-02-22T06:21:15.358Z,14.07
2019-02-22T06:23:46.075Z,13.53
2019-02-22T06:26:16.813Z,14.10
2019-02-22T06:28:47.247Z,14.27
2019-02-22T06:31:18.053Z,13.50
2019-02-22T06:33:48.717Z,12.80
2019-02-22T06:36:19.441Z,11.53
2019-02-22T06:38:50.239Z,9.83
2019-02-22T06:41:21.293Z,8.47
2019-02-22T06:43:51.699Z,8.77
2019-02-22T06:46:22.763Z,8.47
2019-02-22T06:48:53.502Z,7.83
2019-02-22T06:51:24.675Z,6.17
2019-02-22T06:53:55.419Z,6.03
2019-02-22T06:56:26.506Z,6.20
2019-02-22T06:58:57.275Z,5.33
2019-02-22T07:01:28.187Z,5.97
2019-02-22T07:03:59.914Z,6.17
2019-02-22T07:06:30.779Z,5.50
2019-02-22T07:09:01.980Z,5.27
2019-02-22T07:11:34.752Z,5.00
2019-02-22T07:14:05.545Z,4.27
2019-02-22T07:16:36.305Z,4.50
2019-02-22T07:19:07.107Z,4.00
2019-02-22T07:21:49.371Z,3.50
2019-02-22T07:24:10.425Z,3.40
2019-02-22T07:26:41.164Z,3.40
2019-02-22T07:29:11.986Z,3.30
2019-02-22T07:31:42.867Z,3.53
2019-02-22T07:34:13.663Z,3.10
2019-02-22T07:36:44.528Z,2.63
2019-02-22T07:39:27.024Z,2.93
2019-02-22T07:41:47.621Z,2.40
2019-02-22T07:44:18.373Z,2.50
2019-02-22T07:46:52.378Z,2.77
2019-02-22T07:49:28.633Z,2.50
2019-02-22T07:51:59.865Z,2.10
2019-02-22T07:54:30.247Z,2.30
2019-02-22T07:57:01.187Z,2.47
2019-02-22T07:59:32.230Z,2.10
2019-02-22T08:02:03.329Z,2.37
2019-02-22T08:04:34.090Z,2.40
2019-02-22T08:07:04.889Z,2.40
2019-02-22T08:09:35.775Z,2.43
2019-02-22T08:12:06.607Z,2.20
2019-02-22T08:14:37.221Z,2.23
2019-02-22T08:17:14.857Z,2.27
2019-02-22T08:19:42.967Z,2.50
2019-02-22T08:22:13.503Z,2.20
2019-02-22T08:24:44.224Z,2.63
2019-02-22T08:27:15.271Z,2.47
2019-02-22T08:29:46.109Z,2.67
2019-02-22T08:32:17.185Z,2.70
2019-02-22T08:34:47.667Z,2.60
2019-02-22T08:37:21.363Z,2.43
2019-02-22T08:39:58.664Z,2.50
2019-02-22T08:42:24.696Z,2.37
2019-02-22T08:44:55.536Z,2.30
2019-02-22T08:47:26.373Z,2.30
2019-02-22T08:49:57.200Z,2.23
2019-02-22T08:52:29.966Z,2.17
2019-02-22T08:55:00.719Z,2.70
2019-02-22T08:57:31.104Z,2.40
2019-02-22T09:00:01.902Z,2.03
2019-02-22T09:02:32.851Z,2.60
2019-02-22T09:05:06.866Z,2.50
2019-02-22T09:07:37.871Z,2.07
2019-02-22T09:10:14.780Z,1.93
2019-02-22T09:12:45.682Z,2.27
2019-02-22T09:15:17.020Z,2.07
2019-02-22T09:17:47.762Z,2.20
2019-02-22T09:20:22.025Z,2.20
2019-02-22T09:22:52.932Z,1.83
2019-02-22T09:25:23.653Z,1.80
2019-02-22T09:27:54.156Z,2.10
2019-02-22T09:30:25.064Z,2.00
2019-02-22T09:32:56.178Z,2.00
2019-02-22T09:35:26.904Z,1.80
2019-02-22T09:37:57.876Z,1.80
2019-02-22T09:40:30.552Z,1.87
2019-02-22T09:43:01.256Z,1.90
2019-02-22T09:45:32.098Z,1.97
2019-02-22T09:48:02.484Z,1.63
2019-02-22T09:50:33.268Z,1.87
2019-02-22T09:53:05.902Z,2.10
2019-02-22T09:55:36.983Z,1.70
2019-02-22T09:58:07.828Z,1.70
2019-02-22T10:00:40.383Z,1.77
2019-02-22T10:03:13.603Z,1.90
2019-02-22T10:05:44.424Z,1.93
2019-02-22T10:08:17.005Z,1.90
2019-02-22T10:10:49.266Z,1.70
2019-02-22T10:13:21.134Z,1.90
2019-02-22T10:15:54.730Z,2.10
2019-02-22T10:18:27.105Z,1.80
2019-02-22T10:20:57.854Z,1.97
2019-02-22T10:23:28.696Z,2.10
2019-02-22T10:25:59.124Z,1.90
2019-02-22T10:28:30.159Z,1.90
2019-02-22T10:31:00.973Z,2.27
2019-02-22T10:33:36.698Z,2.17
2019-02-22T10:36:03.779Z,2.20
2019-02-22T10:38:36.087Z,2.17
2019-02-22T10:41:07.204Z,2.00
2019-02-22T10:43:38.142Z,2.30
2019-02-22T10:46:08.860Z,2.30
2019-02-22T10:48:39.280Z,2.37
2019-02-22T10:51:10.044Z,2.30
2019-02-22T10:53:40.718Z,2.07
2019-02-22T10:56:11.940Z,2.17
2019-02-22T10:58:42.698Z,2.10
2019-02-22T11:01:13.480Z,2.23
2019-02-22T11:03:44.225Z,2.10
2019-02-22T11:06:14.946Z,2.60
2019-02-22T11:08:45.781Z,1.83
2019-02-22T11:11:19.786Z,2.17
2019-02-22T11:13:50.646Z,2.00
2019-02-22T11:16:21.389Z,1.77
2019-02-22T11:18:52.202Z,1.80
2019-02-22T11:21:22.942Z,2.07
2019-02-22T11:23:53.659Z,2.30
2019-02-22T11:26:24.413Z,2.20
2019-02-22T11:28:57.821Z,2.20
2019-02-22T11:31:28.625Z,2.40
2019-02-22T11:33:59.038Z,2.10
2019-02-22T11:36:29.814Z,2.20
2019-02-22T11:39:00.844Z,2.30
2019-02-22T11:41:31.223Z,2.20
2019-02-22T11:44:02.106Z,2.47
2019-02-22T11:46:32.945Z,2.50
2019-02-22T11:49:03.426Z,2.50
2019-02-22T11:51:34.107Z,2.33
2019-02-22T11:54:05.874Z,2.47
2019-02-22T11:56:36.690Z,2.43
2019-02-22T11:59:07.765Z,2.20
2019-02-22T12:01:38.579Z,2.40
2019-02-22T12:04:09.314Z,2.40
2019-02-22T12:06:40.048Z,2.60
2019-02-22T12:09:10.889Z,2.80
2019-02-22T12:11:41.716Z,2.47
2019-02-22T12:14:12.450Z,2.00
2019-02-22T12:16:43.296Z,2.93
2019-02-22T12:19:14.429Z,2.23
2019-02-22T12:21:45.168Z,2.43
2019-02-22T12:24:18.529Z,2.30
2019-02-22T12:26:49.413Z,2.50
2019-02-22T12:29:19.911Z,2.47
2019-02-22T12:31:50.662Z,2.27
2019-02-22T12:34:21.423Z,2.47
2019-02-22T12:36:52.341Z,2.40
2019-02-22T12:39:23.245Z,2.37
2019-02-22T12:41:54.015Z,2.77
2019-02-22T12:44:24.761Z,2.70
2019-02-22T12:46:55.597Z,2.73
2019-02-22T12:49:26.440Z,2.47
2019-02-22T12:51:57.364Z,2.70
2019-02-22T12:54:30.624Z,2.77
2019-02-22T12:57:00.765Z,2.90
2019-02-22T12:59:31.621Z,3.23
2019-02-22T13:02:02.868Z,2.50
2019-02-22T13:04:33.704Z,2.50
2019-02-22T13:07:06.293Z,2.67
2019-02-22T13:09:37.241Z,2.20
2019-02-22T13:12:13.946Z,2.67
2019-02-22T13:14:40.959Z,2.60
2019-02-22T13:17:12.250Z,3.17
2019-02-22T13:19:43.047Z,3.10
2019-02-22T13:22:15.403Z,2.73
2019-02-22T13:24:46.355Z,2.57
2019-02-22T13:27:17.179Z,2.30
2019-02-22T13:29:48.432Z,2.30
2019-02-22T13:32:19.282Z,2.63
2019-02-22T13:34:51.632Z,2.30
2019-02-22T13:37:22.613Z,2.80
2019-02-22T13:39:53.422Z,2.30
2019-02-22T13:42:23.923Z,3.03
2019-02-22T13:44:56.186Z,2.83
2019-02-22T13:47:28.630Z,2.80
2019-02-22T13:49:59.698Z,2.60
2019-02-22T13:52:34.764Z,2.50
2019-02-22T13:55:03.128Z,7.53
2019-02-22T13:57:35.650Z,4.17
2019-02-22T14:00:10.632Z,6.60
2019-02-22T14:02:41.364Z,3.60
2019-02-22T14:05:12.679Z,2.70
2019-02-22T14:07:54.378Z,3.30
2019-02-22T14:10:26.440Z,2.90
2019-02-22T14:12:57.704Z,2.37
2019-02-22T14:15:37.608Z,3.10
2019-02-22T14:18:02.275Z,4.43
2019-02-22T14:20:33.097Z,9.63
2019-02-22T14:23:03.982Z,4.50
2019-02-22T14:25:34.780Z,2.97
2019-02-22T14:28:05.670Z,3.60
2019-02-22T14:30:36.462Z,4.43
2019-02-22T14:33:07.394Z,3.50
2019-02-22T14:35:38.497Z,7.23
2019-02-22T14:38:11.595Z,5.13
2019-02-22T14:40:42.362Z,2.80
2019-02-22T14:43:16.575Z,3.83
2019-02-22T14:45:50.548Z,3.20
2019-02-22T14:48:20.386Z,3.20
2019-02-22T14:50:51.142Z,2.97
2019-02-22T14:53:21.975Z,2.67
2019-02-22T14:55:52.812Z,2.90
2019-02-22T14:58:23.548Z,3.23
2019-02-22T15:00:59.150Z,3.10
2019-02-22T15:03:26.750Z,2.73
2019-02-22T15:05:57.695Z,2.70
2019-02-22T15:08:28.653Z,2.53
2019-02-22T15:11:00.083Z,2.50
2019-02-22T15:13:30.703Z,3.00
2019-02-22T15:16:03.998Z,2.60
2019-02-22T15:18:34.963Z,2.77
2019-02-22T15:21:05.492Z,2.60
2019-02-22T15:23:38.570Z,2.77
2019-02-22T15:26:08.445Z,3.03
2019-02-22T15:28:39.275Z,2.77
2019-02-22T15:31:10.040Z,2.87
2019-02-22T15:33:43.364Z,3.20
2019-02-22T15:36:16.141Z,3.37
2019-02-22T15:38:46.852Z,2.70
2019-02-22T15:41:19.332Z,2.90
2019-02-22T15:43:50.496Z,3.30
2019-02-22T15:46:21.312Z,3.00
2019-02-22T15:48:53.760Z,2.50
2019-02-22T15:51:25.188Z,2.90
2019-02-22T15:53:55.957Z,2.80
2019-02-22T15:56:26.786Z,3.00
2019-02-22T15:58:57.737Z,3.23
2019-02-22T16:01:28.838Z,4.07
2019-02-22T16:04:01.339Z,3.30
2019-02-22T16:06:32.453Z,3.37
2019-02-22T16:09:05.207Z,2.90
2019-02-22T16:11:36.458Z,3.07
2019-02-22T16:14:07.507Z,2.60
2019-02-22T16:16:39.090Z,4.10
2019-02-22T16:19:09.604Z,3.00
2019-02-22T16:21:40.335Z,3.10
2019-02-22T16:24:10.932Z,3.30
2019-02-22T16:26:41.661Z,2.90
2019-02-22T16:29:13.917Z,2.87
2019-02-22T16:31:44.287Z,3.17
2019-02-22T16:34:14.746Z,3.50
2019-02-22T16:36:45.225Z,3.03
2019-02-22T16:39:16.298Z,2.80
2019-02-22T16:41:47.086Z,3.17
2019-02-22T16:44:17.816Z,3.00
2019-02-22T16:46:48.580Z,3.20
2019-02-22T16:49:19.822Z,3.20
2019-02-22T16:51:50.638Z,3.47
2019-02-22T16:54:21.018Z,3.87
2019-02-22T16:56:51.908Z,4.20
2019-02-22T16:59:22.730Z,3.80
2019-02-22T17:01:53.482Z,3.90
2019-02-22T17:04:24.260Z,4.00
2019-02-22T17:06:54.715Z,4.30
2019-02-22T17:09:25.573Z,3.60
2019-02-22T17:12:06.151Z,4.00
2019-02-22T17:14:28.894Z,3.73
2019-02-22T17:17:00.875Z,4.00
2019-02-22T17:19:31.692Z,4.10
2019-02-22T17:22:02.140Z,3.57
2019-02-22T17:24:32.865Z,4.47
2019-02-22T17:27:05.506Z,3.90
2019-02-22T17:29:36.361Z,4.10
2019-02-22T17:32:07.196Z,4.93
2019-02-22T17:34:37.943Z,4.00
2019-02-22T17:37:08.671Z,4.50
2019-02-22T17:39:39.722Z,4.57
2019-02-22T17:42:14.762Z,3.70
2019-02-22T17:44:45.510Z,3.73
2019-02-22T17:47:16.610Z,3.80
2019-02-22T17:49:49.084Z,3.87
2019-02-22T17:52:21.582Z,3.70
2019-02-22T17:54:52.064Z,5.00
2019-02-22T17:57:25.262Z,4.40
2019-02-22T17:59:56.030Z,3.93
2019-02-22T18:02:26.559Z,4.20
2019-02-22T18:04:57.521Z,4.13
2019-02-22T18:07:28.365Z,5.00
2019-02-22T18:09:59.080Z,4.73
2019-02-22T18:12:29.818Z,4.23
2019-02-22T18:15:00.533Z,5.03
2019-02-22T18:17:31.393Z,5.03
2019-02-22T18:20:01.748Z,4.50
2019-02-22T18:22:32.742Z,4.00
2019-02-22T18:25:03.250Z,4.30
2019-02-22T18:27:34.123Z,3.83
2019-02-22T18:30:08.234Z,4.07
2019-02-22T18:32:38.697Z,4.60
2019-02-22T18:35:09.475Z,4.20
2019-02-22T18:37:40.007Z,4.53
2019-02-22T18:40:18.685Z,4.47
2019-02-22T18:42:49.582Z,4.23
2019-02-22T18:45:20.417Z,4.10
2019-02-22T18:47:51.253Z,4.17
2019-02-22T18:50:25.377Z,5.10
2019-02-22T18:52:57.663Z,3.90
2019-02-22T18:55:28.225Z,4.43
2019-02-22T18:57:59.082Z,4.27
2019-02-22T19:00:29.995Z,4.30
2019-02-22T19:03:00.900Z,4.10
2019-02-22T19:05:31.864Z,3.90
2019-02-22T19:08:02.681Z,4.17
2019-02-22T19:10:33.629Z,4.10
2019-02-22T19:13:04.453Z,4.10
2019-02-22T19:15:35.391Z,4.50
2019-02-22T19:18:05.904Z,4.57
2019-02-22T19:20:36.489Z,4.60
2019-02-22T19:23:14.599Z,4.40
2019-02-22T19:25:45.472Z,4.27
2019-02-22T19:28:17.812Z,4.00
2019-02-22T19:30:48.673Z,4.50
2019-02-22T19:33:19.870Z,4.57
2019-02-22T19:35:50.896Z,4.63
2019-02-22T19:38:21.743Z,4.63
2019-02-22T19:40:52.535Z,4.77
2019-02-22T19:43:23.387Z,4.63
2019-02-22T19:45:54.432Z,4.63
2019-02-22T19:48:25.378Z,4.83
2019-02-22T19:50:56.892Z,4.50
2019-02-22T19:53:27.637Z,4.60
2019-02-22T19:55:58.405Z,4.80
2019-02-22T19:58:29.459Z,4.80
2019-02-22T20:01:00.247Z,4.43
2019-02-22T20:03:32.256Z,4.17
2019-02-22T20:06:04.930Z,4.73
2019-02-22T20:08:35.472Z,4.17
2019-02-22T20:11:07.398Z,4.37
2019-02-22T20:13:40.137Z,4.40
2019-02-22T20:16:10.934Z,4.40
2019-02-22T20:18:41.757Z,4.33
2019-02-22T20:21:12.570Z,4.40
2019-02-22T20:23:43.515Z,4.53
2019-02-22T20:26:13.929Z,4.80
2019-02-22T20:28:44.777Z,4.90
2019-02-22T20:31:20.420Z,4.73
2019-02-22T20:33:49.111Z,4.53
2019-02-22T20:36:27.902Z,4.60
2019-02-22T20:38:52.428Z,4.13
2019-02-22T20:41:23.338Z,4.90
2019-02-22T20:43:54.099Z,4.90
2019-02-22T20:46:25.969Z,5.17
2019-02-22T20:49:00.897Z,4.33
2019-02-22T20:51:29.268Z,4.53
2019-02-22T20:54:00.145Z,4.67
2019-02-22T20:56:31.048Z,4.67
2019-02-22T20:59:01.643Z,4.17
2019-02-22T21:01:32.186Z,4.23
2019-02-22T21:04:03.105Z,5.13
2019-02-22T21:06:33.936Z,9.03
2019-02-22T21:09:10.539Z,9.60
2019-02-22T21:11:38.650Z,5.10
2019-02-22T21:14:11.129Z,4.20
2019-02-22T21:16:45.034Z,4.80
2019-02-22T21:19:15.884Z,4.63
2019-02-22T21:21:46.824Z,4.80
2019-02-22T21:24:17.871Z,4.60
2019-02-22T21:26:48.661Z,4.90
2019-02-22T21:29:20.535Z,4.93
2019-02-22T21:31:51.466Z,5.10
2019-02-22T21:34:22.219Z,5.30
2019-02-22T21:36:53.154Z,5.70
2019-02-22T21:39:23.865Z,5.80
2019-02-22T21:41:54.281Z,6.20
2019-02-22T21:44:26.589Z,6.23
2019-02-22T21:46:57.493Z,5.87
2019-02-22T21:49:28.565Z,5.97
2019-02-22T21:52:01.028Z,5.60
2019-02-22T21:54:36.397Z,5.80
2019-02-22T21:57:10.607Z,5.87
2019-02-22T21:59:41.744Z,5.50
2019-02-22T22:02:12.849Z,5.67
2019-02-22T22:04:43.719Z,6.63
2019-02-22T22:07:14.568Z,5.83
2019-02-22T22:09:45.053Z,6.20
2019-02-22T22:12:20.535Z,6.67
2019-02-22T22:14:52.902Z,7.17
2019-02-22T22:17:26.368Z,6.40
2019-02-22T22:19:57.138Z,6.60
2019-02-22T22:22:28.003Z,7.07
2019-02-22T22:24:58.816Z,6.47
2019-02-22T22:27:29.540Z,7.07
2019-02-22T22:30:00.017Z,7.20
2019-02-22T22:32:30.823Z,7.30
2019-02-22T22:35:01.640Z,7.70
2019-02-22T22:37:32.073Z,6.60
2019-02-22T22:40:02.575Z,7.00
2019-02-22T22:42:33.444Z,6.63
2019-02-22T22:45:06.030Z,6.37
2019-02-22T22:47:37.250Z,6.40
2019-02-22T22:50:12.880Z,6.20
2019-02-22T22:52:43.307Z,6.20
2019-02-22T22:55:14.169Z,5.83
2019-02-22T22:57:44.910Z,6.23
2019-02-22T23:00:35.702Z,6.63
2019-02-22T23:03:06.844Z,6.60
2019-02-22T23:05:37.695Z,6.47
2019-02-22T23:08:08.455Z,6.03
2019-02-22T23:10:39.844Z,7.00
2019-02-22T23:13:10.754Z,6.07
2019-02-22T23:15:41.465Z,5.97
2019-02-22T23:18:12.283Z,5.37
2019-02-22T23:20:45.790Z,5.73
2019-02-22T23:23:16.608Z,6.23
2019-02-22T23:25:47.009Z,5.23
2019-02-22T23:28:17.884Z,5.60
2019-02-22T23:30:48.657Z,5.70
2019-02-22T23:33:21.231Z,5.77
2019-02-22T23:35:52.735Z,5.60
2019-02-22T23:38:23.485Z,5.13
2019-02-22T23:40:54.231Z,5.60
2019-02-22T23:43:24.850Z,5.33
2019-02-22T23:45:58.287Z,6.33
2019-02-22T23:48:29.076Z,5.43
2019-02-22T23:51:10.520Z,5.60
2019-02-22T23:53:36.589Z,5.57
2019-02-22T23:56:10.600Z,5.37
2019-02-22T23:58:43.544Z,5.90
